createdAt,value
2023-05-23T06:41:19.584Z,20.15
2023-05-23T06:42:25.186Z,20.29
2023-05-23T06:43:31.325Z,20.38
2023-05-23T06:44:40.290Z,20.45
2023-05-23T06:45:48.026Z,20.53
2023-05-23T06:46:53.057Z,20.61
2023-05-23T06:47:57.640Z,20.67
2023-05-23T06:49:13.865Z,20.77
2023-05-23T06:50:09.116Z,20.86
2023-05-23T06:51:14.217Z,20.91
2023-05-23T06:52:18.685Z,20.95
2023-05-23T06:53:23.320Z,20.98
2023-05-23T06:54:27.892Z,21.00
2023-05-23T06:55:32.457Z,21.10
2023-05-23T06:56:38.015Z,21.15
2023-05-23T06:57:42.616Z,21.21
2023-05-23T06:58:47.334Z,21.23
2023-05-23T06:59:52.146Z,21.31
2023-05-23T07:00:57.163Z,21.46
2023-05-23T07:02:07.360Z,21.57
2023-05-23T07:03:13.142Z,21.68
2023-05-23T07:04:17.833Z,21.77
2023-05-23T07:05:22.572Z,21.84
2023-05-23T07:06:28.318Z,21.94
2023-05-23T07:07:32.819Z,22.02
2023-05-23T07:08:35.190Z,22.07
2023-05-23T07:09:42.161Z,22.09
2023-05-23T07:10:50.401Z,22.05
2023-05-23T07:12:02.741Z,21.93
2023-05-23T07:13:07.373Z,21.86
2023-05-23T07:14:12.098Z,21.83
2023-05-23T07:15:18.683Z,21.82
2023-05-23T07:16:25.169Z,21.82
2023-05-23T07:17:31.621Z,21.76
2023-05-23T07:18:38.488Z,21.79
2023-05-23T07:19:42.564Z,21.80
2023-05-23T07:20:47.388Z,21.83
2023-05-23T07:21:53.745Z,21.86
2023-05-23T07:22:59.512Z,21.89
2023-05-23T07:24:04.274Z,21.92
2023-05-23T07:25:10.517Z,21.92
2023-05-23T07:26:15.428Z,21.93
2023-05-23T07:27:19.561Z,21.94
2023-05-23T07:28:24.159Z,21.79
2023-05-23T07:29:29.659Z,21.78
2023-05-23T07:30:35.170Z,21.78
2023-05-23T07:31:39.932Z,21.79
2023-05-23T07:32:44.971Z,21.75
2023-05-23T07:33:50.342Z,21.74
2023-05-23T07:34:58.995Z,21.79
2023-05-23T07:36:04.638Z,21.83
2023-05-23T07:37:06.970Z,21.89
2023-05-23T07:38:15.041Z,21.95
2023-05-23T07:39:17.294Z,22.01
2023-05-23T07:40:21.760Z,22.07
2023-05-23T07:41:26.941Z,22.12
2023-05-23T07:42:31.422Z,22.18
2023-05-23T07:43:33.600Z,22.24
2023-05-23T07:44:38.031Z,22.25
2023-05-23T07:45:42.666Z,22.19
2023-05-23T07:46:47.958Z,22.18
2023-05-23T07:47:53.192Z,22.14
2023-05-23T07:48:58.207Z,22.00
2023-05-23T07:50:00.841Z,21.94
2023-05-23T07:51:06.506Z,21.91
2023-05-23T07:52:09.387Z,21.92
2023-05-23T07:53:15.657Z,21.93
2023-05-23T07:54:19.721Z,21.95
2023-05-23T07:55:26.003Z,22.01
2023-05-23T07:56:31.614Z,22.03
2023-05-23T07:57:36.730Z,21.97
2023-05-23T07:58:41.860Z,21.94
2023-05-23T07:59:47.076Z,21.92
2023-05-23T08:02:01.207Z,22.09
2023-05-23T08:03:06.243Z,21.94
2023-05-23T08:04:13.159Z,21.95
2023-05-23T08:05:23.046Z,21.97
2023-05-23T08:06:28.321Z,22.00
2023-05-23T08:07:31.993Z,21.99
2023-05-23T08:08:39.387Z,21.97
2023-05-23T08:09:44.954Z,21.95
2023-05-23T08:10:51.866Z,21.92
2023-05-23T08:11:58.770Z,21.94
2023-05-23T08:13:04.735Z,21.97
2023-05-23T08:14:11.354Z,22.00
2023-05-23T08:15:16.636Z,22.08
2023-05-23T08:16:23.235Z,22.13
2023-05-23T08:17:28.321Z,22.16
2023-05-23T08:18:33.046Z,22.14
2023-05-23T08:19:37.749Z,22.16
2023-05-23T08:20:43.341Z,22.17
2023-05-23T08:21:48.881Z,22.12
2023-05-23T08:22:53.974Z,22.05
2023-05-23T08:23:59.043Z,22.07
2023-05-23T08:25:03.816Z,22.10
2023-05-23T08:26:09.149Z,22.13
2023-05-23T08:27:15.240Z,22.13
2023-05-23T08:28:17.619Z,22.17
2023-05-23T08:30:32.082Z,22.27
2023-05-23T08:31:37.272Z,22.21
2023-05-23T08:32:38.777Z,22.23
2023-05-23T08:33:43.494Z,22.26
2023-05-23T08:34:48.855Z,22.30
2023-05-23T08:35:51.384Z,22.34
2023-05-23T08:37:03.432Z,22.35
2023-05-23T08:38:08.992Z,22.38
2023-05-23T08:39:14.736Z,22.44
2023-05-23T08:40:20.338Z,22.45
2023-05-23T08:41:27.817Z,22.46
2023-05-23T08:42:34.962Z,22.49
2023-05-23T08:43:40.447Z,22.49
2023-05-23T08:44:45.581Z,22.53
2023-05-23T08:45:49.805Z,22.59
2023-05-23T08:46:55.749Z,22.64
2023-05-23T08:48:09.522Z,22.70
2023-05-23T08:49:13.516Z,22.78
2023-05-23T08:50:22.770Z,22.84
2023-05-23T08:51:30.245Z,22.83
2023-05-23T08:52:36.110Z,22.79
2023-05-23T08:53:41.766Z,22.76
2023-05-23T08:54:46.302Z,22.73
2023-05-23T08:55:51.550Z,22.68
2023-05-23T08:56:56.134Z,22.65
2023-05-23T08:58:01.089Z,22.70
2023-05-23T08:59:17.208Z,22.78
2023-05-23T09:00:21.474Z,22.85
2023-05-23T09:01:26.211Z,22.88
2023-05-23T09:02:31.793Z,22.92
2023-05-23T09:03:36.592Z,22.95
2023-05-23T09:04:40.711Z,22.91
2023-05-23T09:05:45.074Z,22.89
2023-05-23T09:06:49.711Z,22.91
2023-05-23T09:07:52.940Z,22.93
2023-05-23T09:08:58.418Z,22.94
2023-05-23T09:10:04.208Z,22.94
2023-05-23T09:11:09.324Z,22.95
2023-05-23T09:12:14.837Z,22.98
2023-05-23T09:13:21.988Z,23.02
2023-05-23T09:14:29.549Z,23.05
2023-05-23T09:15:34.322Z,23.10
2023-05-23T09:16:40.414Z,23.13
2023-05-23T09:17:47.673Z,23.06
2023-05-23T09:18:49.920Z,23.06
2023-05-23T09:20:02.858Z,23.10
2023-05-23T09:21:10.921Z,23.04
2023-05-23T09:22:17.332Z,23.05
2023-05-23T09:23:23.525Z,23.07
2023-05-23T09:24:34.176Z,23.09
2023-05-23T09:25:39.522Z,23.13
2023-05-23T09:26:44.391Z,23.16
2023-05-23T09:27:50.136Z,23.22
2023-05-23T09:28:56.465Z,23.27
2023-05-23T09:30:01.205Z,23.28
2023-05-23T09:32:16.878Z,23.33
2023-05-23T09:33:21.807Z,23.25
2023-05-23T09:34:26.538Z,23.27
2023-05-23T09:35:31.661Z,23.33
2023-05-23T09:36:37.822Z,23.40
2023-05-23T09:37:45.114Z,23.41
2023-05-23T09:38:49.895Z,23.40
2023-05-23T09:39:54.691Z,23.46
2023-05-23T09:40:59.328Z,23.50
2023-05-23T09:42:02.773Z,23.51
2023-05-23T09:43:05.304Z,23.54
2023-05-23T09:44:11.096Z,23.55
2023-05-23T09:45:16.492Z,23.61
2023-05-23T09:46:20.323Z,23.63
2023-05-23T09:48:35.366Z,23.85
2023-05-23T09:49:45.592Z,23.81
2023-05-23T09:50:50.939Z,23.91
2023-05-23T09:51:59.822Z,23.98
2023-05-23T09:53:05.173Z,24.07
2023-05-23T09:54:11.427Z,24.16
2023-05-23T09:55:13.853Z,24.20
2023-05-23T09:56:16.813Z,24.28
2023-05-23T09:57:19.049Z,24.34
2023-05-23T09:58:23.279Z,24.41
2023-05-23T09:59:27.888Z,24.44
2023-05-23T10:00:30.325Z,24.48
2023-05-23T10:01:35.286Z,24.48
2023-05-23T10:02:58.545Z,24.49
2023-05-23T10:04:03.295Z,24.44
2023-05-23T10:05:08.732Z,24.36
2023-05-23T10:06:18.486Z,24.28
2023-05-23T10:07:22.946Z,24.22
2023-05-23T10:08:31.573Z,24.19
2023-05-23T10:09:35.922Z,24.04
2023-05-23T10:12:09.363Z,24.31
2023-05-23T10:13:11.622Z,24.29
2023-05-23T10:14:13.740Z,24.38
2023-05-23T10:15:16.041Z,24.44
2023-05-23T10:18:05.194Z,24.70
2023-05-23T10:20:23.475Z,24.72
2023-05-23T10:21:34.661Z,24.65
2023-05-23T10:22:39.236Z,24.66
2023-05-23T10:23:43.869Z,24.64
2023-05-23T10:24:49.075Z,24.55
2023-05-23T10:25:51.481Z,24.51
2023-05-23T10:26:56.988Z,24.53
2023-05-23T10:28:03.911Z,24.57
2023-05-23T10:29:09.399Z,24.59
2023-05-23T10:30:16.280Z,24.63
2023-05-23T10:31:18.456Z,24.62
2023-05-23T10:32:23.396Z,24.66
2023-05-23T10:33:34.102Z,24.71
2023-05-23T10:35:05.385Z,24.76
2023-05-23T10:36:31.911Z,24.81
2023-05-23T10:39:01.942Z,24.82
2023-05-23T10:40:29.901Z,24.68
2023-05-23T10:41:46.788Z,24.67
2023-05-23T10:43:01.917Z,24.65
2023-05-23T10:44:32.627Z,24.69
2023-05-23T10:45:43.932Z,24.62
2023-05-23T10:46:56.033Z,24.49
2023-05-23T10:48:01.843Z,24.48
2023-05-23T10:50:13.670Z,24.56
2023-05-23T10:51:18.716Z,24.50
2023-05-23T10:52:25.288Z,24.50
2023-05-23T10:53:29.763Z,24.49
2023-05-23T10:54:39.056Z,24.44
2023-05-23T10:55:44.142Z,24.39
2023-05-23T10:56:48.760Z,24.43
2023-05-23T10:58:11.451Z,24.50
2023-05-23T10:59:22.608Z,24.56
2023-05-23T11:00:27.095Z,24.63
2023-05-23T11:01:31.670Z,24.65
2023-05-23T11:02:33.963Z,24.64
2023-05-23T11:03:50.455Z,24.67
2023-05-23T11:05:20.108Z,24.68
2023-05-23T11:06:34.951Z,24.73
2023-05-23T11:07:39.571Z,24.78
2023-05-23T11:08:48.310Z,24.80
2023-05-23T11:10:10.979Z,24.82
2023-05-23T11:11:12.982Z,24.79
2023-05-23T11:12:17.851Z,24.74
2023-05-23T11:13:24.032Z,24.71
2023-05-23T11:14:34.639Z,24.69
2023-05-23T11:16:53.525Z,24.80
2023-05-23T11:18:00.026Z,24.72
2023-05-23T11:19:26.309Z,24.61
2023-05-23T11:20:28.865Z,24.64
2023-05-23T11:21:31.577Z,24.71
2023-05-23T11:22:37.230Z,24.75
2023-05-23T11:23:42.364Z,24.78
2023-05-23T11:24:54.283Z,24.69
2023-05-23T11:25:59.433Z,24.69
2023-05-23T11:27:04.523Z,24.70
2023-05-23T11:28:09.510Z,24.76
2023-05-23T11:29:14.475Z,24.82
2023-05-23T11:30:20.135Z,24.83
2023-05-23T11:31:24.791Z,24.79
2023-05-23T11:32:29.001Z,24.76
2023-05-23T11:33:33.772Z,24.76
2023-05-23T11:34:39.978Z,24.76
2023-05-23T11:35:45.665Z,24.72
2023-05-23T11:38:02.270Z,24.75
2023-05-23T11:39:06.961Z,24.59
2023-05-23T11:40:37.377Z,24.59
2023-05-23T11:41:43.476Z,24.62
2023-05-23T11:42:48.136Z,24.68
2023-05-23T11:43:51.479Z,24.74
2023-05-23T11:44:56.243Z,24.75
2023-05-23T11:47:20.457Z,24.85
2023-05-23T11:48:23.296Z,24.72
2023-05-23T11:49:31.444Z,24.70
2023-05-23T11:50:36.632Z,24.74
2023-05-23T11:51:42.501Z,24.79
2023-05-23T11:52:47.610Z,24.85
2023-05-23T11:53:52.169Z,24.91
2023-05-23T11:55:00.116Z,24.90
2023-05-23T11:56:01.674Z,24.95
2023-05-23T11:57:04.389Z,25.01
2023-05-23T11:58:08.550Z,25.07
2023-05-23T11:59:10.775Z,25.17
2023-05-23T12:00:17.841Z,25.21
2023-05-23T12:01:22.571Z,25.22
2023-05-23T12:02:28.127Z,25.32
2023-05-23T12:03:33.179Z,25.44
2023-05-23T12:04:37.587Z,25.59
2023-05-23T12:05:41.841Z,25.70
2023-05-23T12:06:50.828Z,25.81
2023-05-23T12:07:55.823Z,25.94
2023-05-23T12:09:01.398Z,26.00
2023-05-23T12:10:08.735Z,26.05
2023-05-23T12:11:11.892Z,26.10
2023-05-23T12:12:14.337Z,26.09
2023-05-23T12:13:18.756Z,26.08
2023-05-23T12:14:21.052Z,26.03
2023-05-23T12:15:26.273Z,25.98
2023-05-23T12:16:29.778Z,25.93
2023-05-23T12:17:34.266Z,25.78
2023-05-23T12:18:39.596Z,25.71
2023-05-23T12:19:46.557Z,25.63
2023-05-23T12:20:52.663Z,25.56
2023-05-23T12:21:57.858Z,25.53
2023-05-23T12:23:04.390Z,25.46
2023-05-23T12:25:26.822Z,25.46
2023-05-23T12:26:31.488Z,25.36
2023-05-23T12:27:38.038Z,25.39
2023-05-23T12:28:44.559Z,25.42
2023-05-23T12:29:53.434Z,25.47
2023-05-23T12:30:59.358Z,25.44
2023-05-23T12:32:04.506Z,25.45
2023-05-23T12:33:10.622Z,25.44
2023-05-23T12:34:15.305Z,25.44
2023-05-23T12:35:20.589Z,25.36
2023-05-23T12:36:29.578Z,25.33
2023-05-23T12:37:34.119Z,25.29
2023-05-23T12:38:36.697Z,25.21
2023-05-23T12:39:41.125Z,25.27
2023-05-23T12:40:45.636Z,25.33
2023-05-23T12:41:50.909Z,25.36
2023-05-23T12:42:54.611Z,25.38
2023-05-23T12:43:59.073Z,25.44
2023-05-23T12:45:03.527Z,25.45
2023-05-23T12:46:10.008Z,25.53
2023-05-23T12:47:12.432Z,25.56
2023-05-23T12:48:14.942Z,25.64
2023-05-23T12:49:19.845Z,25.59
2023-05-23T12:50:24.467Z,25.52
2023-05-23T12:51:29.149Z,25.42
2023-05-23T12:52:33.841Z,25.40
2023-05-23T12:53:39.480Z,25.38
2023-05-23T12:54:44.493Z,25.41
2023-05-23T12:55:47.006Z,25.48
2023-05-23T12:56:49.280Z,25.52
2023-05-23T12:57:53.643Z,25.55
2023-05-23T12:58:58.160Z,25.58
2023-05-23T13:00:03.266Z,25.55
2023-05-23T13:01:08.135Z,25.53
2023-05-23T13:02:12.805Z,25.56
2023-05-23T13:03:14.980Z,25.61
2023-05-23T13:04:19.406Z,25.59
2023-05-23T13:05:24.046Z,25.58
2023-05-23T13:06:29.308Z,25.58
2023-05-23T13:07:34.448Z,25.55
2023-05-23T13:08:39.678Z,25.56
2023-05-23T13:09:44.256Z,25.57
2023-05-23T13:10:46.799Z,25.58
2023-05-23T13:11:50.915Z,25.61
2023-05-23T13:12:55.507Z,25.59
2023-05-23T13:14:00.541Z,25.46
2023-05-23T13:15:08.181Z,25.49
2023-05-23T13:16:12.789Z,25.47
2023-05-23T13:17:17.813Z,25.47
2023-05-23T13:18:23.099Z,25.43
2023-05-23T13:19:28.189Z,25.42
2023-05-23T13:20:32.620Z,25.46
2023-05-23T13:21:37.245Z,25.44
2023-05-23T13:22:40.641Z,25.46
2023-05-23T13:23:44.893Z,25.45
2023-05-23T13:24:49.448Z,25.49
2023-05-23T13:25:55.797Z,25.55
2023-05-23T13:27:00.451Z,25.58
2023-05-23T13:28:04.948Z,25.60
2023-05-23T13:29:07.132Z,25.64
2023-05-23T13:30:11.599Z,25.65
2023-05-23T13:31:13.874Z,25.64
2023-05-23T13:32:18.152Z,25.60
2023-05-23T13:33:20.491Z,25.59
2023-05-23T13:34:25.780Z,25.57
2023-05-23T13:35:27.967Z,25.59
2023-05-23T13:36:32.939Z,25.63
2023-05-23T13:37:35.178Z,25.62
2023-05-23T13:38:39.329Z,25.64
2023-05-23T13:39:41.567Z,25.69
2023-05-23T13:40:47.784Z,25.75
2023-05-23T13:41:52.880Z,25.79
2023-05-23T13:42:58.199Z,25.80
2023-05-23T13:44:02.536Z,25.70
2023-05-23T13:45:11.698Z,25.68
2023-05-23T13:46:14.413Z,25.64
2023-05-23T13:47:16.643Z,25.63
2023-05-23T13:48:21.584Z,25.56
2023-05-23T13:49:23.872Z,25.54
2023-05-23T13:50:29.049Z,25.52
2023-05-23T13:51:34.585Z,25.55
2023-05-23T13:52:42.102Z,25.54
2023-05-23T13:53:45.764Z,25.56
2023-05-23T13:54:53.026Z,25.57
2023-05-23T13:55:58.024Z,25.60
2023-05-23T13:57:00.543Z,25.65
2023-05-23T13:58:04.612Z,25.70
2023-05-23T13:59:09.145Z,25.63
2023-05-23T14:00:15.604Z,25.63
2023-05-23T14:01:21.103Z,25.65
2023-05-23T14:02:23.422Z,25.66
2023-05-23T14:03:25.503Z,25.64
2023-05-23T14:04:30.620Z,25.59
2023-05-23T14:05:32.764Z,25.55
2023-05-23T14:06:35.387Z,25.56
2023-05-23T14:07:40.434Z,25.56
2023-05-23T14:08:45.114Z,25.58
2023-05-23T14:09:50.449Z,25.63
2023-05-23T14:10:55.006Z,25.68
2023-05-23T14:11:57.320Z,25.67
2023-05-23T14:12:59.718Z,25.63
2023-05-23T14:14:01.904Z,25.62
2023-05-23T14:15:04.806Z,25.65
2023-05-23T14:16:07.564Z,25.69
2023-05-23T14:18:24.055Z,25.90
2023-05-23T14:19:28.286Z,25.85
2023-05-23T14:20:32.988Z,25.82
2023-05-23T14:21:35.419Z,25.76
2023-05-23T14:22:37.850Z,25.69
2023-05-23T14:23:40.222Z,25.69
2023-05-23T14:24:42.407Z,25.70
2023-05-23T14:25:44.835Z,25.72
2023-05-23T14:26:47.315Z,25.75
2023-05-23T14:27:49.457Z,25.72
2023-05-23T14:28:53.699Z,25.67
2023-05-23T14:29:58.204Z,25.67
2023-05-23T14:31:03.427Z,25.66
2023-05-23T14:32:09.036Z,25.67
2023-05-23T14:33:12.321Z,25.71
2023-05-23T14:34:14.552Z,25.73
2023-05-23T14:35:18.924Z,25.70
2023-05-23T14:36:21.317Z,25.60
2023-05-23T14:37:25.434Z,25.55
2023-05-23T14:38:27.761Z,25.54
2023-05-23T14:39:32.592Z,25.58
2023-05-23T14:40:37.399Z,25.62
2023-05-23T14:41:42.440Z,25.66
2023-05-23T14:42:44.558Z,25.69
2023-05-23T14:43:48.755Z,25.73
2023-05-23T14:44:55.453Z,25.78
2023-05-23T14:46:01.171Z,25.73
2023-05-23T14:47:06.928Z,25.69
2023-05-23T14:48:12.054Z,25.68
2023-05-23T14:49:16.657Z,25.65
2023-05-23T14:50:21.518Z,25.62
2023-05-23T14:51:42.999Z,25.58
2023-05-23T14:52:33.597Z,25.50
2023-05-23T14:53:38.221Z,25.48
2023-05-23T14:54:42.719Z,25.46
2023-05-23T14:55:48.188Z,25.43
2023-05-23T14:56:53.513Z,25.42
2023-05-23T14:57:58.202Z,25.40
2023-05-23T14:59:03.376Z,25.38
2023-05-23T15:00:08.210Z,25.35
2023-05-23T15:01:13.820Z,25.29
2023-05-23T15:02:21.404Z,25.24
2023-05-23T15:03:26.610Z,25.18
2023-05-23T15:04:30.978Z,25.16
2023-05-23T15:05:35.394Z,25.16
2023-05-23T15:06:41.104Z,25.19
2023-05-23T15:07:46.171Z,25.21
2023-05-23T15:08:50.739Z,25.23
2023-05-23T15:09:55.470Z,25.28
2023-05-23T15:11:00.182Z,25.26
2023-05-23T15:12:05.118Z,25.23
2023-05-23T15:13:09.602Z,25.21
2023-05-23T15:14:14.759Z,25.19
2023-05-23T15:15:20.681Z,25.20
2023-05-23T15:16:26.500Z,25.21
2023-05-23T15:18:41.797Z,25.35
2023-05-23T15:19:46.232Z,25.24
2023-05-23T15:20:50.795Z,25.21
2023-05-23T15:21:56.061Z,25.22
2023-05-23T15:23:00.951Z,25.24
2023-05-23T15:24:06.662Z,25.26
2023-05-23T15:25:12.249Z,25.28
2023-05-23T15:26:15.156Z,25.32
2023-05-23T15:27:20.970Z,25.38
2023-05-23T15:28:23.638Z,25.43
2023-05-23T15:29:26.012Z,25.47
2023-05-23T15:30:30.985Z,25.45
2023-05-23T15:31:36.287Z,25.41
2023-05-23T15:32:40.784Z,25.36
2023-05-23T15:33:45.928Z,25.30
2023-05-23T15:34:50.546Z,25.31
2023-05-23T15:35:55.638Z,25.33
2023-05-23T15:37:00.167Z,25.35
2023-05-23T15:38:04.684Z,25.33
2023-05-23T15:39:08.956Z,25.32
2023-05-23T15:40:14.848Z,25.32
2023-05-23T15:41:20.061Z,25.29
2023-05-23T15:42:24.600Z,25.28
2023-05-23T15:43:29.086Z,25.29
2023-05-23T15:44:33.685Z,25.29
2023-05-23T15:45:38.943Z,25.26
2023-05-23T15:46:43.749Z,25.22
2023-05-23T15:47:48.261Z,25.18
2023-05-23T15:48:52.860Z,25.18
2023-05-23T15:49:57.458Z,25.17
2023-05-23T15:51:02.142Z,25.12
2023-05-23T15:52:07.833Z,25.10
2023-05-23T15:53:12.457Z,25.04
2023-05-23T15:54:17.176Z,24.99
2023-05-23T15:55:22.054Z,24.95
2023-05-23T15:56:26.654Z,24.91
2023-05-23T15:57:31.361Z,24.91
2023-05-23T15:58:35.870Z,24.85
2023-05-23T15:59:39.217Z,24.82
2023-05-23T16:00:43.762Z,24.80
2023-05-23T16:01:48.256Z,24.81
2023-05-23T16:02:50.926Z,24.81
2023-05-23T16:03:53.391Z,24.84
2023-05-23T16:04:57.792Z,24.87
2023-05-23T16:06:02.031Z,24.90
2023-05-23T16:07:07.447Z,24.93
2023-05-23T16:08:11.888Z,24.97
2023-05-23T16:09:16.403Z,24.98
2023-05-23T16:10:20.983Z,24.98
2023-05-23T16:11:25.738Z,24.96
2023-05-23T16:12:30.351Z,24.96
2023-05-23T16:13:35.274Z,24.98
2023-05-23T16:14:40.232Z,25.00
2023-05-23T16:15:45.235Z,25.01
2023-05-23T16:16:47.770Z,25.06
2023-05-23T16:17:52.367Z,25.07
2023-05-23T16:18:56.896Z,25.07
2023-05-23T16:20:02.013Z,25.07
2023-05-23T16:21:06.661Z,25.07
2023-05-23T16:22:11.144Z,25.07
2023-05-23T16:23:16.894Z,25.07
2023-05-23T16:24:21.923Z,25.08
2023-05-23T16:25:26.592Z,25.02
2023-05-23T16:26:31.235Z,25.01
2023-05-23T16:27:36.281Z,25.01
2023-05-23T16:28:40.843Z,24.97
2023-05-23T16:29:45.654Z,24.92
2023-05-23T16:30:50.280Z,24.84
2023-05-23T16:31:54.980Z,24.81
2023-05-23T16:32:59.531Z,24.76
2023-05-23T16:34:01.870Z,24.81
2023-05-23T16:35:09.316Z,24.85
2023-05-23T16:36:14.561Z,24.93
2023-05-23T16:37:19.387Z,25.03
2023-05-23T16:38:23.983Z,25.10
2023-05-23T16:39:29.005Z,25.17
2023-05-23T16:40:33.696Z,25.21
2023-05-23T16:41:38.359Z,25.24
2023-05-23T16:42:43.584Z,25.23
2023-05-23T16:43:48.624Z,25.17
2023-05-23T16:44:53.123Z,25.07
2023-05-23T16:45:58.193Z,25.03
2023-05-23T16:47:02.828Z,25.02
2023-05-23T16:48:07.379Z,25.03
2023-05-23T16:49:12.457Z,25.01
2023-05-23T16:50:17.234Z,24.98
2023-05-23T16:51:21.870Z,24.99
2023-05-23T16:52:26.480Z,25.01
2023-05-23T16:53:31.500Z,24.99
2023-05-23T16:54:36.107Z,25.00
2023-05-23T16:55:41.026Z,25.07
2023-05-23T16:56:45.877Z,25.13
2023-05-23T16:57:50.626Z,25.10
2023-05-23T16:58:55.295Z,25.07
2023-05-23T16:59:59.816Z,25.05
2023-05-23T17:01:05.005Z,25.00
2023-05-23T17:03:20.272Z,24.99
2023-05-23T17:04:24.558Z,24.83
2023-05-23T17:05:29.541Z,24.78
2023-05-23T17:06:34.694Z,24.77
2023-05-23T17:07:39.957Z,24.79
2023-05-23T17:08:44.602Z,24.78
2023-05-23T17:09:49.201Z,24.74
2023-05-23T17:10:51.678Z,24.70
2023-05-23T17:11:55.811Z,24.68
2023-05-23T17:13:00.806Z,24.65
2023-05-23T17:14:05.529Z,24.63
2023-05-23T17:15:11.357Z,24.57
2023-05-23T17:16:17.976Z,24.48
2023-05-23T17:17:24.072Z,24.39
2023-05-23T17:18:26.347Z,24.33
2023-05-23T17:19:29.259Z,24.29
2023-05-23T17:20:33.912Z,24.21
2023-05-23T17:21:38.541Z,24.14
2023-05-23T17:22:43.165Z,24.10
2023-05-23T17:23:48.214Z,24.04
2023-05-23T17:24:53.341Z,23.97
2023-05-23T17:25:57.621Z,23.89
2023-05-23T17:27:02.203Z,23.83
2023-05-23T17:28:05.715Z,23.74
2023-05-23T17:29:10.211Z,23.68
2023-05-23T17:30:13.581Z,23.59
2023-05-23T17:31:17.912Z,23.52
2023-05-23T17:32:23.035Z,23.45
2023-05-23T17:33:27.595Z,23.41
2023-05-23T17:34:32.250Z,23.38
2023-05-23T17:35:36.817Z,23.36
2023-05-23T17:36:41.512Z,23.35
2023-05-23T17:37:46.038Z,23.34
2023-05-23T17:38:50.694Z,23.35
2023-05-23T17:39:57.565Z,23.36
2023-05-23T17:41:01.634Z,23.35
2023-05-23T17:42:07.193Z,23.32
2023-05-23T17:43:12.121Z,23.27
2023-05-23T17:44:16.856Z,23.23
2023-05-23T17:45:21.467Z,23.19
2023-05-23T17:46:27.241Z,23.15
2023-05-23T17:47:31.844Z,23.12
2023-05-23T17:48:47.130Z,23.11
2023-05-23T17:49:43.030Z,23.05
2023-05-23T17:50:47.584Z,23.00
2023-05-23T17:51:49.810Z,22.98
2023-05-23T17:52:53.980Z,22.95
2023-05-23T17:53:58.766Z,22.94
2023-05-23T17:55:03.796Z,22.92
2023-05-23T17:56:09.291Z,22.91
2023-05-23T17:57:13.548Z,22.89
2023-05-23T17:58:18.024Z,22.85
2023-05-23T17:59:20.377Z,22.84
2023-05-23T18:00:22.841Z,22.80
2023-05-23T18:01:25.220Z,22.77
2023-05-23T18:02:28.553Z,22.75
2023-05-23T18:03:31.028Z,22.74
2023-05-23T18:04:33.216Z,22.73
2023-05-23T18:05:35.342Z,22.69
2023-05-23T18:06:40.021Z,22.65
2023-05-23T18:07:42.261Z,22.63
2023-05-23T18:08:44.578Z,22.60
2023-05-23T18:09:46.789Z,22.57
2023-05-23T18:10:49.038Z,22.54
2023-05-23T18:11:51.225Z,22.51
2023-05-23T18:12:53.362Z,22.50
2023-05-23T18:13:55.855Z,22.49
2023-05-23T18:14:58.255Z,22.48
2023-05-23T18:16:02.502Z,22.46
2023-05-23T18:18:18.519Z,22.54
2023-05-23T18:19:23.212Z,22.42
2023-05-23T18:20:28.706Z,22.40
2023-05-23T18:21:33.759Z,22.38
2023-05-23T18:22:38.435Z,22.37
2023-05-23T18:23:43.663Z,22.34
2023-05-23T18:24:48.275Z,22.32
2023-05-23T18:25:53.173Z,22.28
2023-05-23T18:26:58.288Z,22.24
2023-05-23T18:28:03.971Z,22.20
2023-05-23T18:29:08.594Z,22.14
2023-05-23T18:30:14.472Z,22.09
2023-05-23T18:31:19.242Z,22.05
2023-05-23T18:32:23.792Z,22.02
2023-05-23T18:33:29.209Z,21.99
2023-05-23T18:34:33.624Z,21.98
2023-05-23T18:35:38.201Z,21.94
2023-05-23T18:36:42.813Z,21.92
2023-05-23T18:37:47.402Z,21.89
2023-05-23T18:38:52.649Z,21.86
2023-05-23T18:39:57.144Z,21.83
2023-05-23T18:41:02.345Z,21.80
2023-05-23T18:42:10.146Z,21.77
2023-05-23T18:43:15.239Z,21.75
2023-05-23T18:44:21.111Z,21.74
2023-05-23T18:45:25.907Z,21.73
2023-05-23T18:46:31.693Z,21.70
2023-05-23T18:47:34.580Z,21.68
2023-05-23T18:48:39.144Z,21.64
2023-05-23T18:49:43.755Z,21.62
2023-05-23T18:50:48.492Z,21.58
2023-05-23T18:51:53.151Z,21.55
2023-05-23T18:52:57.593Z,21.52
2023-05-23T18:54:02.834Z,21.48
2023-05-23T18:55:07.078Z,21.46
2023-05-23T18:56:12.195Z,21.42
2023-05-23T18:57:16.784Z,21.36
2023-05-23T18:58:21.424Z,21.31
2023-05-23T18:59:26.206Z,21.27
2023-05-23T19:00:30.801Z,21.25
2023-05-23T19:01:35.485Z,21.21
2023-05-23T19:02:41.000Z,21.19
2023-05-23T19:03:46.331Z,21.16
2023-05-23T19:04:50.640Z,21.14
2023-05-23T19:05:55.178Z,21.11
2023-05-23T19:07:00.318Z,21.09
2023-05-23T19:08:04.900Z,21.07
2023-05-23T19:09:09.491Z,21.04
2023-05-23T19:10:14.687Z,21.02
2023-05-23T19:11:19.350Z,20.99
2023-05-23T19:12:23.964Z,20.98
2023-05-23T19:13:29.659Z,20.96
2023-05-23T19:14:34.690Z,20.94
2023-05-23T19:15:39.769Z,20.93
2023-05-23T19:16:44.457Z,20.92
2023-05-23T19:17:49.229Z,20.90
2023-05-23T19:18:53.618Z,20.89
2023-05-23T19:19:58.129Z,20.87
2023-05-23T19:21:02.846Z,20.86
2023-05-23T19:22:07.360Z,20.85
2023-05-23T19:23:12.358Z,20.83
2023-05-23T19:24:17.322Z,20.82
2023-05-23T19:25:20.458Z,20.78
2023-05-23T19:26:25.015Z,20.76
2023-05-23T19:27:29.292Z,20.73
2023-05-23T19:28:33.889Z,20.71
2023-05-23T19:29:38.649Z,20.66
2023-05-23T19:30:44.175Z,20.63
2023-05-23T19:31:48.806Z,20.61
2023-05-23T19:32:53.900Z,20.58
2023-05-23T19:33:58.897Z,20.56
2023-05-23T19:35:04.108Z,20.52
2023-05-23T19:36:08.825Z,20.51
2023-05-23T19:37:13.819Z,20.48
2023-05-23T19:38:18.164Z,20.46
2023-05-23T19:39:23.356Z,20.43
2023-05-23T19:40:28.022Z,20.42
2023-05-23T19:41:33.118Z,20.39
2023-05-23T19:42:37.573Z,20.37
2023-05-23T19:43:42.095Z,20.35
2023-05-23T19:44:46.620Z,20.33
2023-05-23T19:45:51.112Z,20.31
2023-05-23T19:46:55.726Z,20.28
2023-05-23T19:48:00.450Z,20.27
2023-05-23T19:49:05.054Z,20.24
2023-05-23T19:50:14.310Z,20.22
2023-05-23T19:51:18.835Z,20.18
2023-05-23T19:52:23.297Z,20.17
2023-05-23T19:53:28.431Z,20.14
2023-05-23T19:54:33.733Z,20.11
2023-05-23T19:55:38.072Z,20.09
2023-05-23T19:56:42.691Z,20.07
2023-05-23T19:57:47.249Z,20.03
2023-05-23T19:58:51.819Z,20.01
2023-05-23T19:59:56.480Z,19.98
2023-05-23T20:01:01.281Z,19.97
2023-05-23T20:02:06.237Z,19.95
2023-05-23T20:03:11.296Z,19.93
2023-05-23T20:04:15.963Z,19.91
2023-05-23T20:05:18.935Z,19.89
2023-05-23T20:06:23.714Z,19.87
2023-05-23T20:07:28.760Z,19.85
2023-05-23T20:08:33.323Z,19.83
2023-05-23T20:09:38.344Z,19.81
2023-05-23T20:10:43.753Z,19.79
2023-05-23T20:11:47.978Z,19.77
2023-05-23T20:12:52.470Z,19.75
2023-05-23T20:13:57.646Z,19.73
2023-05-23T20:15:02.173Z,19.72
2023-05-23T20:16:06.933Z,19.70
2023-05-23T20:17:11.455Z,19.67
2023-05-23T20:18:16.574Z,19.67
2023-05-23T20:19:20.817Z,19.64
2023-05-23T20:20:28.714Z,19.62
2023-05-23T20:21:33.373Z,19.61
2023-05-23T20:22:37.946Z,19.59
2023-05-23T20:23:43.054Z,19.57
2023-05-23T20:24:47.572Z,19.56
2023-05-23T20:25:52.235Z,19.55
2023-05-23T20:26:57.508Z,19.53
2023-05-23T20:28:02.570Z,19.52
2023-05-23T20:29:07.134Z,19.50
2023-05-23T20:30:12.613Z,19.48
2023-05-23T20:31:18.714Z,19.46
2023-05-23T20:32:23.379Z,19.45
2023-05-23T20:33:28.431Z,19.41
2023-05-23T20:34:33.417Z,19.36
2023-05-23T20:35:38.039Z,19.33
2023-05-23T20:36:42.690Z,19.30
2023-05-23T20:37:47.720Z,19.29
2023-05-23T20:38:52.325Z,19.30
2023-05-23T20:39:57.037Z,19.30
2023-05-23T20:41:00.865Z,19.28
2023-05-23T20:42:05.693Z,19.29
2023-05-23T20:43:10.293Z,19.28
2023-05-23T20:44:14.849Z,19.28
2023-05-23T20:45:19.928Z,19.27
2023-05-23T20:46:24.526Z,19.26
2023-05-23T20:47:29.301Z,19.24
2023-05-23T20:48:34.292Z,19.23
2023-05-23T20:49:39.316Z,19.22
2023-05-23T20:50:44.345Z,19.20
2023-05-23T20:51:50.059Z,19.20
2023-05-23T20:52:54.659Z,19.17
2023-05-23T20:53:59.174Z,19.15
2023-05-23T20:55:03.885Z,19.14
2023-05-23T20:56:09.137Z,19.13
2023-05-23T20:57:13.635Z,19.11
2023-05-23T20:58:18.247Z,19.10
2023-05-23T20:59:23.821Z,19.07
2023-05-23T21:00:28.454Z,19.05
2023-05-23T21:01:33.412Z,19.03
2023-05-23T21:02:38.317Z,19.00